Crystal Springs, California
Current Conditions -  °F | °C
As of 3:53 PM on Friday 31 Oct 2014 (Local Time) from KTVL Reporting Station
Clear Clear  
Wind Chill: 54°   Ceiling: Unl
Heat Index: 54°   Visibility: 10mi
Dew Point: 33°   Wind: 17mph
Humidity: 45%   Direction: 200°SSW
Pressure: 29.78"   Gusts: 26mph
Location:  38.6924°N, 119.835°W
Report Text: KTVL 312253Z AUTO 20015G23KT 10SM CLR 12/01 A2978 RMK AO2 SLP042 T01220006
Loading
Personal Weather Stations






























Interactive Weather Map
Tropical Storm Tracking
New forecast layout! Learn more

10-Day Weather Forecast

Advertisements
Track Severe Weather on mobile